sensor_id;sensor_type;location;lat;lon;timestamp;P1;durP1;ratioP1;P2;durP2;ratioP2
18210;SDS011;9231;48.852;9.882;2022-07-10T00:00:46;661.63;;;603.87;;
18210;SDS011;9231;48.852;9.882;2022-07-10T00:03:14;626.03;;;570.17;;
18210;SDS011;9231;48.852;9.882;2022-07-10T00:05:40;638.33;;;582.37;;
18210;SDS011;9231;48.852;9.882;2022-07-10T00:08:07;684.93;;;627.47;;
18210;SDS011;9231;48.852;9.882;2022-07-10T00:10:33;571.97;;;518.50;;
18210;SDS011;9231;48.852;9.882;2022-07-10T00:13:00;528.87;;;477.53;;
18210;SDS011;9231;48.852;9.882;2022-07-10T00:15:27;527.73;;;476.27;;
18210;SDS011;9231;48.852;9.882;2022-07-10T00:17:53;532.40;;;481.17;;
18210;SDS011;9231;48.852;9.882;2022-07-10T00:20:21;520.37;;;468.73;;
18210;SDS011;9231;48.852;9.882;2022-07-10T00:22:47;532.40;;;480.47;;
18210;SDS011;9231;48.852;9.882;2022-07-10T00:25:14;650.03;;;593.87;;
18210;SDS011;9231;48.852;9.882;2022-07-10T00:27:41;648.00;;;592.10;;
18210;SDS011;9231;48.852;9.882;2022-07-10T00:30:08;628.93;;;573.80;;
18210;SDS011;9231;48.852;9.882;2022-07-10T00:32:34;501.07;;;450.30;;
18210;SDS011;9231;48.852;9.882;2022-07-10T00:35:01;494.77;;;444.20;;
18210;SDS011;9231;48.852;9.882;2022-07-10T00:37:29;516.00;;;464.77;;
18210;SDS011;9231;48.852;9.882;2022-07-10T00:39:56;626.13;;;570.70;;
18210;SDS011;9231;48.852;9.882;2022-07-10T00:42:22;622.90;;;567.57;;
18210;SDS011;9231;48.852;9.882;2022-07-10T00:44:49;600.30;;;546.33;;
18210;SDS011;9231;48.852;9.882;2022-07-10T00:47:15;613.90;;;558.50;;
18210;SDS011;9231;48.852;9.882;2022-07-10T00:49:44;599.73;;;545.00;;
18210;SDS011;9231;48.852;9.882;2022-07-10T00:52:12;618.70;;;563.07;;
18210;SDS011;9231;48.852;9.882;2022-07-10T00:54:41;582.37;;;527.90;;
18210;SDS011;9231;48.852;9.882;2022-07-10T00:57:08;526.37;;;475.07;;
18210;SDS011;9231;48.852;9.882;2022-07-10T00:59:34;592.27;;;537.80;;
18210;SDS011;9231;48.852;9.882;2022-07-10T01:02:01;624.03;;;568.37;;
18210;SDS011;9231;48.852;9.882;2022-07-10T01:04:28;602.07;;;547.57;;
18210;SDS011;9231;48.852;9.882;2022-07-10T01:06:54;497.57;;;446.77;;
18210;SDS011;9231;48.852;9.882;2022-07-10T01:09:21;595.80;;;540.93;;
18210;SDS011;9231;48.852;9.882;2022-07-10T01:11:49;577.10;;;522.87;;
18210;SDS011;9231;48.852;9.882;2022-07-10T01:14:15;542.33;;;489.57;;
18210;SDS011;9231;48.852;9.882;2022-07-10T01:16:42;573.00;;;519.77;;
18210;SDS011;9231;48.852;9.882;2022-07-10T01:19:08;590.20;;;535.20;;
18210;SDS011;9231;48.852;9.882;2022-07-10T01:21:37;574.87;;;521.37;;
18210;SDS011;9231;48.852;9.882;2022-07-10T01:24:04;544.23;;;491.40;;
18210;SDS011;9231;48.852;9.882;2022-07-10T01:26:31;589.90;;;535.73;;
18210;SDS011;9231;48.852;9.882;2022-07-10T01:28:57;559.03;;;505.87;;
18210;SDS011;9231;48.852;9.882;2022-07-10T01:31:25;470.47;;;420.20;;
18210;SDS011;9231;48.852;9.882;2022-07-10T01:33:52;521.03;;;468.93;;
18210;SDS011;9231;48.852;9.882;2022-07-10T01:36:19;590.20;;;535.87;;
18210;SDS011;9231;48.852;9.882;2022-07-10T01:38:52;550.23;;;497.17;;
18210;SDS011;9231;48.852;9.882;2022-07-10T01:41:18;563.30;;;509.43;;
18210;SDS011;9231;48.852;9.882;2022-07-10T01:43:45;436.47;;;374.13;;
18210;SDS011;9231;48.852;9.882;2022-07-10T01:46:13;585.03;;;530.87;;
18210;SDS011;9231;48.852;9.882;2022-07-10T01:48:39;507.27;;;455.30;;
18210;SDS011;9231;48.852;9.882;2022-07-10T01:51:06;495.70;;;443.97;;
18210;SDS011;9231;48.852;9.882;2022-07-10T01:53:33;492.70;;;442.10;;
18210;SDS011;9231;48.852;9.882;2022-07-10T01:56:01;517.77;;;465.93;;
18210;SDS011;9231;48.852;9.882;2022-07-10T01:58:29;560.83;;;506.73;;
18210;SDS011;9231;48.852;9.882;2022-07-10T02:00:55;519.47;;;466.97;;
18210;SDS011;9231;48.852;9.882;2022-07-10T02:03:22;424.60;;;328.80;;
18210;SDS011;9231;48.852;9.882;2022-07-10T02:06:05;451.57;;;402.23;;
18210;SDS011;9231;48.852;9.882;2022-07-10T02:08:32;463.30;;;413.47;;
18210;SDS011;9231;48.852;9.882;2022-07-10T02:10:58;444.33;;;376.60;;
18210;SDS011;9231;48.852;9.882;2022-07-10T02:13:26;435.07;;;367.63;;
18210;SDS011;9231;48.852;9.882;2022-07-10T02:15:53;444.67;;;387.73;;
18210;SDS011;9231;48.852;9.882;2022-07-10T02:18:20;431.73;;;365.10;;
18210;SDS011;9231;48.852;9.882;2022-07-10T02:20:47;449.83;;;384.33;;
18210;SDS011;9231;48.852;9.882;2022-07-10T02:23:13;441.33;;;376.87;;
18210;SDS011;9231;48.852;9.882;2022-07-10T02:25:40;411.67;;;288.83;;
18210;SDS011;9231;48.852;9.882;2022-07-10T02:28:07;414.33;;;285.90;;
18210;SDS011;9231;48.852;9.882;2022-07-10T02:30:35;431.10;;;358.07;;
18210;SDS011;9231;48.852;9.882;2022-07-10T02:33:02;439.37;;;343.40;;
18210;SDS011;9231;48.852;9.882;2022-07-10T02:35:29;433.27;;;355.07;;
18210;SDS011;9231;48.852;9.882;2022-07-10T02:37:55;434.60;;;360.07;;
18210;SDS011;9231;48.852;9.882;2022-07-10T02:40:22;441.03;;;359.23;;
18210;SDS011;9231;48.852;9.882;2022-07-10T02:42:48;427.87;;;333.20;;
18210;SDS011;9231;48.852;9.882;2022-07-10T02:45:15;432.10;;;335.07;;
18210;SDS011;9231;48.852;9.882;2022-07-10T02:47:42;425.20;;;327.87;;
18210;SDS011;9231;48.852;9.882;2022-07-10T02:50:09;430.63;;;327.13;;
18210;SDS011;9231;48.852;9.882;2022-07-10T02:52:35;412.10;;;283.10;;
18210;SDS011;9231;48.852;9.882;2022-07-10T02:55:02;416.17;;;290.37;;
18210;SDS011;9231;48.852;9.882;2022-07-10T02:57:31;420.37;;;331.60;;
18210;SDS011;9231;48.852;9.882;2022-07-10T02:59:58;429.57;;;342.97;;
18210;SDS011;9231;48.852;9.882;2022-07-10T03:02:24;430.93;;;345.40;;
18210;SDS011;9231;48.852;9.882;2022-07-10T03:04:53;411.53;;;281.87;;
18210;SDS011;9231;48.852;9.882;2022-07-10T03:07:19;414.50;;;290.07;;
18210;SDS011;9231;48.852;9.882;2022-07-10T03:09:46;424.97;;;341.13;;
18210;SDS011;9231;48.852;9.882;2022-07-10T03:12:12;425.53;;;326.70;;
18210;SDS011;9231;48.852;9.882;2022-07-10T03:14:38;421.57;;;318.33;;
18210;SDS011;9231;48.852;9.882;2022-07-10T03:17:05;405.03;;;263.77;;
18210;SDS011;9231;48.852;9.882;2022-07-10T03:19:31;434.33;;;345.60;;
18210;SDS011;9231;48.852;9.882;2022-07-10T03:21:59;421.87;;;314.27;;
18210;SDS011;9231;48.852;9.882;2022-07-10T03:24:26;428.60;;;333.93;;
18210;SDS011;9231;48.852;9.882;2022-07-10T03:26:52;427.87;;;332.43;;
18210;SDS011;9231;48.852;9.882;2022-07-10T03:29:19;401.33;;;257.27;;
18210;SDS011;9231;48.852;9.882;2022-07-10T03:31:45;429.33;;;336.67;;
18210;SDS011;9231;48.852;9.882;2022-07-10T03:34:12;427.17;;;323.10;;
18210;SDS011;9231;48.852;9.882;2022-07-10T03:36:38;404.37;;;256.47;;
18210;SDS011;9231;48.852;9.882;2022-07-10T03:39:06;424.77;;;302.90;;
18210;SDS011;9231;48.852;9.882;2022-07-10T03:41:33;409.87;;;279.30;;
18210;SDS011;9231;48.852;9.882;2022-07-10T03:43:59;412.57;;;277.87;;
18210;SDS011;9231;48.852;9.882;2022-07-10T03:46:26;413.20;;;276.03;;
18210;SDS011;9231;48.852;9.882;2022-07-10T03:48:52;406.53;;;279.00;;
18210;SDS011;9231;48.852;9.882;2022-07-10T03:51:19;417.60;;;290.00;;
18210;SDS011;9231;48.852;9.882;2022-07-10T03:53:45;418.33;;;299.50;;
18210;SDS011;9231;48.852;9.882;2022-07-10T03:56:13;415.23;;;283.87;;
18210;SDS011;9231;48.852;9.882;2022-07-10T03:58:59;392.67;;;228.37;;
18210;SDS011;9231;48.852;9.882;2022-07-10T04:01:25;412.10;;;265.67;;
18210;SDS011;9231;48.852;9.882;2022-07-10T04:03:51;404.33;;;251.20;;
18210;SDS011;9231;48.852;9.882;2022-07-10T04:06:18;410.77;;;265.60;;
18210;SDS011;9231;48.852;9.882;2022-07-10T04:08:45;411.90;;;287.03;;
18210;SDS011;9231;48.852;9.882;2022-07-10T04:11:11;413.73;;;281.57;;
18210;SDS011;9231;48.852;9.882;2022-07-10T04:13:39;398.73;;;236.57;;
18210;SDS011;9231;48.852;9.882;2022-07-10T04:16:06;416.00;;;293.00;;
18210;SDS011;9231;48.852;9.882;2022-07-10T04:18:35;409.47;;;274.63;;
18210;SDS011;9231;48.852;9.882;2022-07-10T04:21:01;412.03;;;265.50;;
18210;SDS011;9231;48.852;9.882;2022-07-10T04:23:28;410.10;;;268.57;;
18210;SDS011;9231;48.852;9.882;2022-07-10T04:25:54;404.93;;;259.13;;
18210;SDS011;9231;48.852;9.882;2022-07-10T04:28:22;389.73;;;219.30;;
18210;SDS011;9231;48.852;9.882;2022-07-10T04:30:50;414.83;;;289.20;;
18210;SDS011;9231;48.852;9.882;2022-07-10T04:33:16;412.37;;;286.40;;
18210;SDS011;9231;48.852;9.882;2022-07-10T04:35:43;410.07;;;276.43;;
18210;SDS011;9231;48.852;9.882;2022-07-10T04:38:09;397.53;;;253.13;;
18210;SDS011;9231;48.852;9.882;2022-07-10T04:40:36;396.67;;;223.87;;
18210;SDS011;9231;48.852;9.882;2022-07-10T04:43:02;393.23;;;229.30;;
18210;SDS011;9231;48.852;9.882;2022-07-10T04:45:29;411.30;;;290.50;;
18210;SDS011;9231;48.852;9.882;2022-07-10T04:47:56;416.33;;;289.53;;
18210;SDS011;9231;48.852;9.882;2022-07-10T04:50:23;408.30;;;272.37;;
18210;SDS011;9231;48.852;9.882;2022-07-10T04:52:50;415.07;;;295.70;;
18210;SDS011;9231;48.852;9.882;2022-07-10T04:55:16;422.33;;;306.13;;
18210;SDS011;9231;48.852;9.882;2022-07-10T04:57:43;407.53;;;300.00;;
18210;SDS011;9231;48.852;9.882;2022-07-10T05:00:10;398.47;;;244.27;;
18210;SDS011;9231;48.852;9.882;2022-07-10T05:02:37;397.03;;;244.60;;
18210;SDS011;9231;48.852;9.882;2022-07-10T05:05:05;413.87;;;297.60;;
18210;SDS011;9231;48.852;9.882;2022-07-10T05:07:31;439.10;;;362.30;;
18210;SDS011;9231;48.852;9.882;2022-07-10T05:09:58;413.90;;;281.13;;
18210;SDS011;9231;48.852;9.882;2022-07-10T05:12:24;440.03;;;360.33;;
18210;SDS011;9231;48.852;9.882;2022-07-10T05:14:51;433.30;;;354.47;;
18210;SDS011;9231;48.852;9.882;2022-07-10T05:17:17;441.07;;;364.67;;
18210;SDS011;9231;48.852;9.882;2022-07-10T05:19:44;434.53;;;333.53;;
18210;SDS011;9231;48.852;9.882;2022-07-10T05:22:11;420.63;;;288.03;;
18210;SDS011;9231;48.852;9.882;2022-07-10T05:24:38;410.97;;;278.03;;
18210;SDS011;9231;48.852;9.882;2022-07-10T05:27:05;430.07;;;345.80;;
18210;SDS011;9231;48.852;9.882;2022-07-10T05:29:31;429.33;;;342.13;;
18210;SDS011;9231;48.852;9.882;2022-07-10T05:31:58;444.80;;;386.23;;
18210;SDS011;9231;48.852;9.882;2022-07-10T05:34:24;454.70;;;401.67;;
18210;SDS011;9231;48.852;9.882;2022-07-10T05:36:51;409.93;;;278.80;;
18210;SDS011;9231;48.852;9.882;2022-07-10T05:39:19;412.40;;;289.33;;
18210;SDS011;9231;48.852;9.882;2022-07-10T05:41:45;411.43;;;297.17;;
18210;SDS011;9231;48.852;9.882;2022-07-10T05:44:12;445.00;;;369.80;;
18210;SDS011;9231;48.852;9.882;2022-07-10T05:46:38;409.03;;;282.37;;
18210;SDS011;9231;48.852;9.882;2022-07-10T05:49:05;425.83;;;335.97;;
18210;SDS011;9231;48.852;9.882;2022-07-10T05:51:31;439.27;;;366.93;;
18210;SDS011;9231;48.852;9.882;2022-07-10T05:53:58;425.63;;;326.70;;
18210;SDS011;9231;48.852;9.882;2022-07-10T05:56:25;424.00;;;319.57;;
18210;SDS011;9231;48.852;9.882;2022-07-10T05:58:52;421.33;;;321.93;;
18210;SDS011;9231;48.852;9.882;2022-07-10T06:01:20;432.90;;;357.77;;
18210;SDS011;9231;48.852;9.882;2022-07-10T06:03:47;435.00;;;356.03;;
18210;SDS011;9231;48.852;9.882;2022-07-10T06:06:13;424.10;;;342.90;;
18210;SDS011;9231;48.852;9.882;2022-07-10T06:08:40;425.27;;;337.23;;
18210;SDS011;9231;48.852;9.882;2022-07-10T06:11:06;412.47;;;291.17;;
18210;SDS011;9231;48.852;9.882;2022-07-10T06:13:34;446.90;;;383.17;;
18210;SDS011;9231;48.852;9.882;2022-07-10T06:16:01;432.73;;;325.10;;
18210;SDS011;9231;48.852;9.882;2022-07-10T06:18:28;434.30;;;359.00;;
18210;SDS011;9231;48.852;9.882;2022-07-10T06:20:55;443.30;;;364.13;;
18210;SDS011;9231;48.852;9.882;2022-07-10T06:23:21;435.00;;;346.40;;
18210;SDS011;9231;48.852;9.882;2022-07-10T06:25:48;431.00;;;357.67;;
18210;SDS011;9231;48.852;9.882;2022-07-10T06:28:14;441.43;;;370.60;;
18210;SDS011;9231;48.852;9.882;2022-07-10T06:30:43;413.83;;;286.50;;
18210;SDS011;9231;48.852;9.882;2022-07-10T06:33:09;410.90;;;288.93;;
18210;SDS011;9231;48.852;9.882;2022-07-10T06:35:36;441.33;;;367.03;;
18210;SDS011;9231;48.852;9.882;2022-07-10T06:38:03;443.77;;;382.20;;
18210;SDS011;9231;48.852;9.882;2022-07-10T06:40:29;438.97;;;375.10;;
18210;SDS011;9231;48.852;9.882;2022-07-10T06:42:56;429.03;;;343.73;;
18210;SDS011;9231;48.852;9.882;2022-07-10T06:45:22;457.03;;;407.03;;
18210;SDS011;9231;48.852;9.882;2022-07-10T06:47:50;435.27;;;360.97;;
18210;SDS011;9231;48.852;9.882;2022-07-10T06:50:23;425.60;;;332.53;;
18210;SDS011;9231;48.852;9.882;2022-07-10T06:52:50;455.37;;;404.93;;
18210;SDS011;9231;48.852;9.882;2022-07-10T06:55:17;441.43;;;382.97;;
18210;SDS011;9231;48.852;9.882;2022-07-10T06:57:44;478.67;;;427.40;;
18210;SDS011;9231;48.852;9.882;2022-07-10T07:00:10;415.30;;;295.03;;
18210;SDS011;9231;48.852;9.882;2022-07-10T07:02:37;419.67;;;317.47;;
18210;SDS011;9231;48.852;9.882;2022-07-10T07:05:06;499.30;;;447.00;;
18210;SDS011;9231;48.852;9.882;2022-07-10T07:07:33;509.23;;;456.77;;
18210;SDS011;9231;48.852;9.882;2022-07-10T07:09:59;473.47;;;422.27;;
18210;SDS011;9231;48.852;9.882;2022-07-10T07:12:26;422.70;;;330.13;;
18210;SDS011;9231;48.852;9.882;2022-07-10T07:14:52;434.63;;;360.07;;
18210;SDS011;9231;48.852;9.882;2022-07-10T07:17:18;537.33;;;484.60;;
18210;SDS011;9231;48.852;9.882;2022-07-10T07:19:48;436.97;;;379.13;;
18210;SDS011;9231;48.852;9.882;2022-07-10T07:22:34;578.07;;;524.00;;
18210;SDS011;9231;48.852;9.882;2022-07-10T07:25:18;584.17;;;529.90;;
18210;SDS011;9231;48.852;9.882;2022-07-10T07:27:44;448.33;;;397.87;;
18210;SDS011;9231;48.852;9.882;2022-07-10T07:30:11;457.77;;;408.30;;
18210;SDS011;9231;48.852;9.882;2022-07-10T07:32:40;585.40;;;531.40;;
18210;SDS011;9231;48.852;9.882;2022-07-10T07:35:07;577.70;;;523.90;;
18210;SDS011;9231;48.852;9.882;2022-07-10T07:37:36;630.00;;;574.43;;
18210;SDS011;9231;48.852;9.882;2022-07-10T07:40:03;536.27;;;483.70;;
18210;SDS011;9231;48.852;9.882;2022-07-10T07:42:29;638.63;;;582.93;;
18210;SDS011;9231;48.852;9.882;2022-07-10T07:44:56;674.07;;;616.50;;
18210;SDS011;9231;48.852;9.882;2022-07-10T07:47:22;606.37;;;552.00;;
18210;SDS011;9231;48.852;9.882;2022-07-10T07:49:48;557.47;;;504.67;;
18210;SDS011;9231;48.852;9.882;2022-07-10T07:52:15;602.67;;;547.90;;
18210;SDS011;9231;48.852;9.882;2022-07-10T07:54:43;595.40;;;541.63;;
18210;SDS011;9231;48.852;9.882;2022-07-10T07:57:10;602.93;;;548.40;;
18210;SDS011;9231;48.852;9.882;2022-07-10T07:59:36;587.43;;;533.20;;
18210;SDS011;9231;48.852;9.882;2022-07-10T08:02:04;594.93;;;541.13;;
18210;SDS011;9231;48.852;9.882;2022-07-10T08:04:31;604.03;;;549.80;;
18210;SDS011;9231;48.852;9.882;2022-07-10T08:06:57;602.83;;;548.37;;
18210;SDS011;9231;48.852;9.882;2022-07-10T08:09:26;457.13;;;407.77;;
18210;SDS011;9231;48.852;9.882;2022-07-10T08:11:54;492.70;;;442.07;;
18210;SDS011;9231;48.852;9.882;2022-07-10T08:14:20;565.07;;;511.93;;
18210;SDS011;9231;48.852;9.882;2022-07-10T08:16:47;624.43;;;568.83;;
18210;SDS011;9231;48.852;9.882;2022-07-10T08:19:13;649.57;;;593.33;;
18210;SDS011;9231;48.852;9.882;2022-07-10T08:21:40;539.90;;;487.70;;
18210;SDS011;9231;48.852;9.882;2022-07-10T08:24:06;495.87;;;445.77;;
18210;SDS011;9231;48.852;9.882;2022-07-10T08:26:32;605.87;;;551.43;;
18210;SDS011;9231;48.852;9.882;2022-07-10T08:29:00;451.67;;;403.10;;
18210;SDS011;9231;48.852;9.882;2022-07-10T08:31:27;674.67;;;617.57;;
18210;SDS011;9231;48.852;9.882;2022-07-10T08:33:53;611.83;;;557.57;;
18210;SDS011;9231;48.852;9.882;2022-07-10T08:36:20;612.13;;;557.27;;
18210;SDS011;9231;48.852;9.882;2022-07-10T08:38:46;617.00;;;561.73;;
18210;SDS011;9231;48.852;9.882;2022-07-10T08:41:12;589.43;;;535.50;;
18210;SDS011;9231;48.852;9.882;2022-07-10T08:43:39;535.33;;;482.93;;
18210;SDS011;9231;48.852;9.882;2022-07-10T08:46:07;526.43;;;474.47;;
18210;SDS011;9231;48.852;9.882;2022-07-10T08:48:34;615.87;;;561.23;;
18210;SDS011;9231;48.852;9.882;2022-07-10T08:51:03;626.63;;;571.87;;
18210;SDS011;9231;48.852;9.882;2022-07-10T08:53:31;581.10;;;527.90;;
18210;SDS011;9231;48.852;9.882;2022-07-10T08:55:57;570.37;;;517.17;;
18210;SDS011;9231;48.852;9.882;2022-07-10T08:58:24;618.60;;;563.13;;
18210;SDS011;9231;48.852;9.882;2022-07-10T09:00:52;442.03;;;391.50;;
18210;SDS011;9231;48.852;9.882;2022-07-10T09:03:20;497.43;;;446.57;;
18210;SDS011;9231;48.852;9.882;2022-07-10T09:05:46;597.73;;;543.50;;
18210;SDS011;9231;48.852;9.882;2022-07-10T09:08:23;633.60;;;577.90;;
18210;SDS011;9231;48.852;9.882;2022-07-10T09:10:49;593.03;;;539.37;;
18210;SDS011;9231;48.852;9.882;2022-07-10T09:13:16;619.13;;;564.57;;
18210;SDS011;9231;48.852;9.882;2022-07-10T09:15:47;591.27;;;537.33;;
18210;SDS011;9231;48.852;9.882;2022-07-10T09:18:17;605.70;;;551.17;;
18210;SDS011;9231;48.852;9.882;2022-07-10T09:20:45;636.13;;;580.17;;
18210;SDS011;9231;48.852;9.882;2022-07-10T09:23:15;581.63;;;527.90;;
18210;SDS011;9231;48.852;9.882;2022-07-10T09:25:43;560.27;;;508.10;;
18210;SDS011;9231;48.852;9.882;2022-07-10T09:28:09;572.77;;;519.73;;
18210;SDS011;9231;48.852;9.882;2022-07-10T09:30:36;538.97;;;486.90;;
18210;SDS011;9231;48.852;9.882;2022-07-10T09:36:01;685.37;;;627.53;;
18210;SDS011;9231;48.852;9.882;2022-07-10T09:38:47;626.20;;;570.53;;
18210;SDS011;9231;48.852;9.882;2022-07-10T09:41:14;587.97;;;533.97;;
18210;SDS011;9231;48.852;9.882;2022-07-10T09:43:42;608.07;;;553.03;;
18210;SDS011;9231;48.852;9.882;2022-07-10T09:46:09;529.10;;;477.87;;
18210;SDS011;9231;48.852;9.882;2022-07-10T09:48:35;663.37;;;606.63;;
18210;SDS011;9231;48.852;9.882;2022-07-10T09:51:03;612.83;;;557.93;;
18210;SDS011;9231;48.852;9.882;2022-07-10T09:53:31;610.67;;;555.80;;
18210;SDS011;9231;48.852;9.882;2022-07-10T09:55:59;623.93;;;569.17;;
18210;SDS011;9231;48.852;9.882;2022-07-10T09:58:27;539.97;;;488.40;;
18210;SDS011;9231;48.852;9.882;2022-07-10T10:00:56;642.03;;;585.63;;
18210;SDS011;9231;48.852;9.882;2022-07-10T10:03:23;567.67;;;515.23;;
18210;SDS011;9231;48.852;9.882;2022-07-10T10:05:52;534.80;;;483.00;;
18210;SDS011;9231;48.852;9.882;2022-07-10T10:08:21;591.13;;;537.10;;
18210;SDS011;9231;48.852;9.882;2022-07-10T10:10:50;619.57;;;564.23;;
18210;SDS011;9231;48.852;9.882;2022-07-10T10:13:17;543.50;;;491.97;;
18210;SDS011;9231;48.852;9.882;2022-07-10T10:15:45;515.87;;;464.03;;
18210;SDS011;9231;48.852;9.882;2022-07-10T10:18:12;555.70;;;502.17;;
18210;SDS011;9231;48.852;9.882;2022-07-10T10:20:39;592.07;;;537.27;;
18210;SDS011;9231;48.852;9.882;2022-07-10T10:23:08;594.30;;;540.00;;
18210;SDS011;9231;48.852;9.882;2022-07-10T10:25:37;496.20;;;445.57;;
18210;SDS011;9231;48.852;9.882;2022-07-10T10:28:04;450.30;;;395.97;;
18210;SDS011;9231;48.852;9.882;2022-07-10T10:30:31;681.93;;;624.37;;
18210;SDS011;9231;48.852;9.882;2022-07-10T10:32:58;556.67;;;504.07;;
18210;SDS011;9231;48.852;9.882;2022-07-10T10:35:43;613.50;;;558.23;;
18210;SDS011;9231;48.852;9.882;2022-07-10T10:38:12;557.47;;;504.80;;
18210;SDS011;9231;48.852;9.882;2022-07-10T10:40:40;514.90;;;463.80;;
18210;SDS011;9231;48.852;9.882;2022-07-10T10:43:16;497.10;;;446.00;;
18210;SDS011;9231;48.852;9.882;2022-07-10T10:45:43;453.20;;;399.47;;
18210;SDS011;9231;48.852;9.882;2022-07-10T10:48:10;584.33;;;530.47;;
18210;SDS011;9231;48.852;9.882;2022-07-10T10:50:37;461.23;;;411.50;;
18210;SDS011;9231;48.852;9.882;2022-07-10T10:53:05;480.63;;;430.30;;
18210;SDS011;9231;48.852;9.882;2022-07-10T10:55:39;640.00;;;584.10;;
18210;SDS011;9231;48.852;9.882;2022-07-10T10:58:13;486.30;;;435.83;;
18210;SDS011;9231;48.852;9.882;2022-07-10T11:00:40;506.07;;;455.47;;
18210;SDS011;9231;48.852;9.882;2022-07-10T11:03:20;535.00;;;483.17;;
18210;SDS011;9231;48.852;9.882;2022-07-10T11:05:47;677.67;;;620.20;;
18210;SDS011;9231;48.852;9.882;2022-07-10T11:08:15;525.70;;;474.83;;
18210;SDS011;9231;48.852;9.882;2022-07-10T11:11:02;540.87;;;488.60;;
18210;SDS011;9231;48.852;9.882;2022-07-10T11:13:49;603.27;;;549.03;;
18210;SDS011;9231;48.852;9.882;2022-07-10T11:16:15;625.27;;;570.10;;
18210;SDS011;9231;48.852;9.882;2022-07-10T11:18:44;681.77;;;625.07;;
18210;SDS011;9231;48.852;9.882;2022-07-10T11:21:11;496.30;;;446.23;;
18210;SDS011;9231;48.852;9.882;2022-07-10T11:23:48;453.23;;;404.40;;
18210;SDS011;9231;48.852;9.882;2022-07-10T11:26:20;622.07;;;566.73;;
18210;SDS011;9231;48.852;9.882;2022-07-10T11:28:49;650.20;;;593.67;;
18210;SDS011;9231;48.852;9.882;2022-07-10T11:31:16;669.37;;;611.77;;
18210;SDS011;9231;48.852;9.882;2022-07-10T11:33:43;408.27;;;271.50;;
18210;SDS011;9231;48.852;9.882;2022-07-10T11:36:11;433.87;;;372.23;;
18210;SDS011;9231;48.852;9.882;2022-07-10T11:38:38;410.93;;;276.33;;
18210;SDS011;9231;48.852;9.882;2022-07-10T11:41:11;417.67;;;308.77;;
18210;SDS011;9231;48.852;9.882;2022-07-10T11:43:46;418.77;;;312.77;;
18210;SDS011;9231;48.852;9.882;2022-07-10T11:46:12;414.47;;;290.37;;
18210;SDS011;9231;48.852;9.882;2022-07-10T11:48:39;405.47;;;288.33;;
18210;SDS011;9231;48.852;9.882;2022-07-10T11:51:15;422.47;;;321.50;;
18210;SDS011;9231;48.852;9.882;2022-07-10T11:53:41;401.50;;;301.63;;
18210;SDS011;9231;48.852;9.882;2022-07-10T11:56:18;409.30;;;300.53;;
18210;SDS011;9231;48.852;9.882;2022-07-10T11:58:54;406.07;;;300.27;;
18210;SDS011;9231;48.852;9.882;2022-07-10T12:01:20;403.13;;;296.60;;
18210;SDS011;9231;48.852;9.882;2022-07-10T12:03:53;402.40;;;295.80;;
18210;SDS011;9231;48.852;9.882;2022-07-10T12:06:20;404.73;;;306.03;;
18210;SDS011;9231;48.852;9.882;2022-07-10T12:08:47;405.57;;;311.53;;
18210;SDS011;9231;48.852;9.882;2022-07-10T12:11:13;397.87;;;289.47;;
18210;SDS011;9231;48.852;9.882;2022-07-10T12:13:40;421.37;;;337.27;;
18210;SDS011;9231;48.852;9.882;2022-07-10T12:16:08;405.20;;;301.30;;
18210;SDS011;9231;48.852;9.882;2022-07-10T12:18:34;408.33;;;305.97;;
18210;SDS011;9231;48.852;9.882;2022-07-10T12:21:01;404.07;;;297.43;;
18210;SDS011;9231;48.852;9.882;2022-07-10T12:23:28;424.73;;;356.37;;
18210;SDS011;9231;48.852;9.882;2022-07-10T12:25:54;412.73;;;318.27;;
18210;SDS011;9231;48.852;9.882;2022-07-10T12:28:21;403.47;;;304.57;;
18210;SDS011;9231;48.852;9.882;2022-07-10T12:30:48;418.07;;;338.17;;
18210;SDS011;9231;48.852;9.882;2022-07-10T12:33:18;410.53;;;334.20;;
18210;SDS011;9231;48.852;9.882;2022-07-10T12:35:46;417.57;;;355.33;;
18210;SDS011;9231;48.852;9.882;2022-07-10T12:38:14;410.97;;;339.70;;
18210;SDS011;9231;48.852;9.882;2022-07-10T12:40:40;411.10;;;325.53;;
18210;SDS011;9231;48.852;9.882;2022-07-10T12:43:07;409.90;;;339.17;;
18210;SDS011;9231;48.852;9.882;2022-07-10T12:45:36;411.60;;;342.57;;
18210;SDS011;9231;48.852;9.882;2022-07-10T12:48:03;438.60;;;391.57;;
18210;SDS011;9231;48.852;9.882;2022-07-10T12:50:32;434.83;;;388.00;;
18210;SDS011;9231;48.852;9.882;2022-07-10T12:53:08;415.70;;;359.03;;
18210;SDS011;9231;48.852;9.882;2022-07-10T12:55:35;408.13;;;339.03;;
18210;SDS011;9231;48.852;9.882;2022-07-10T12:58:04;416.60;;;357.27;;
18210;SDS011;9231;48.852;9.882;2022-07-10T13:00:33;407.80;;;330.17;;
18210;SDS011;9231;48.852;9.882;2022-07-10T13:03:01;406.87;;;319.23;;
18210;SDS011;9231;48.852;9.882;2022-07-10T13:05:28;403.27;;;308.93;;
18210;SDS011;9231;48.852;9.882;2022-07-10T13:08:05;408.13;;;315.77;;
18210;SDS011;9231;48.852;9.882;2022-07-10T13:10:32;403.17;;;304.87;;
18210;SDS011;9231;48.852;9.882;2022-07-10T13:13:01;408.47;;;313.53;;
18210;SDS011;9231;48.852;9.882;2022-07-10T13:15:27;411.00;;;334.03;;
18210;SDS011;9231;48.852;9.882;2022-07-10T13:17:54;409.23;;;331.77;;
18210;SDS011;9231;48.852;9.882;2022-07-10T13:20:20;411.90;;;336.77;;
18210;SDS011;9231;48.852;9.882;2022-07-10T13:22:47;399.63;;;308.77;;
18210;SDS011;9231;48.852;9.882;2022-07-10T13:25:15;393.07;;;304.63;;
18210;SDS011;9231;48.852;9.882;2022-07-10T13:27:41;414.07;;;343.47;;
18210;SDS011;9231;48.852;9.882;2022-07-10T13:30:09;399.03;;;300.43;;
18210;SDS011;9231;48.852;9.882;2022-07-10T13:32:36;626.40;;;573.73;;
18210;SDS011;9231;48.852;9.882;2022-07-10T13:35:02;452.57;;;403.53;;
18210;SDS011;9231;48.852;9.882;2022-07-10T13:37:29;487.57;;;438.03;;
18210;SDS011;9231;48.852;9.882;2022-07-10T13:39:56;462.20;;;413.33;;
18210;SDS011;9231;48.852;9.882;2022-07-10T13:42:24;443.83;;;395.60;;
18210;SDS011;9231;48.852;9.882;2022-07-10T13:44:50;419.93;;;337.00;;
18210;SDS011;9231;48.852;9.882;2022-07-10T13:47:17;418.07;;;344.37;;
18210;SDS011;9231;48.852;9.882;2022-07-10T13:49:43;440.90;;;393.40;;
18210;SDS011;9231;48.852;9.882;2022-07-10T13:52:10;472.50;;;424.60;;
18210;SDS011;9231;48.852;9.882;2022-07-10T13:54:36;518.43;;;468.60;;
18210;SDS011;9231;48.852;9.882;2022-07-10T13:57:03;472.13;;;423.93;;
18210;SDS011;9231;48.852;9.882;2022-07-10T13:59:31;466.13;;;418.30;;
18210;SDS011;9231;48.852;9.882;2022-07-10T14:01:58;487.90;;;439.83;;
18210;SDS011;9231;48.852;9.882;2022-07-10T14:04:24;484.13;;;436.07;;
18210;SDS011;9231;48.852;9.882;2022-07-10T14:06:50;500.87;;;452.17;;
18210;SDS011;9231;48.852;9.882;2022-07-10T14:09:17;503.37;;;454.93;;
18210;SDS011;9231;48.852;9.882;2022-07-10T14:11:44;499.67;;;451.30;;
18210;SDS011;9231;48.852;9.882;2022-07-10T14:14:11;494.70;;;446.20;;